createdAt,value
2022-08-17T00:00:44.112Z,5.99
2022-08-17T00:01:30.368Z,5.41
2022-08-17T00:02:36.099Z,5.36
2022-08-17T00:03:44.791Z,5.41
2022-08-17T00:04:51.515Z,5.21
2022-08-17T00:06:03.219Z,5.39
2022-08-17T00:07:07.040Z,5.74
2022-08-17T00:08:12.903Z,5.27
2022-08-17T00:09:19.560Z,5.84
2022-08-17T00:10:25.119Z,5.44
2022-08-17T00:11:35.967Z,5.85
2022-08-17T00:12:44.923Z,5.59
2022-08-17T00:13:52.190Z,5.60
2022-08-17T00:14:56.518Z,5.48
2022-08-17T00:17:15.442Z,5.55
2022-08-17T00:19:05.690Z,5.65
2022-08-17T00:19:28.841Z,5.37
2022-08-17T00:20:34.853Z,5.75
2022-08-17T00:22:32.677Z,5.37
2022-08-17T00:22:46.668Z,5.42
2022-08-17T00:23:54.083Z,5.51
2022-08-17T00:24:57.571Z,5.52
2022-08-17T00:26:01.707Z,5.49
2022-08-17T00:27:06.048Z,5.51
2022-08-17T00:28:08.557Z,5.24
2022-08-17T00:29:19.752Z,5.21
2022-08-17T00:30:21.029Z,5.45
2022-08-17T00:31:30.092Z,5.25
2022-08-17T00:33:14.624Z,5.68
2022-08-17T00:33:56.840Z,5.99
2022-08-17T00:35:03.323Z,5.85
2022-08-17T00:36:08.194Z,5.49
2022-08-17T00:37:11.912Z,5.96
2022-08-17T00:38:17.194Z,5.54
2022-08-17T00:39:22.426Z,5.67
2022-08-17T00:40:44.548Z,6.11
2022-08-17T00:41:40.117Z,5.84
2022-08-17T00:42:44.862Z,5.51
2022-08-17T00:44:00.061Z,5.88
2022-08-17T00:45:07.942Z,5.19
2022-08-17T00:47:25.792Z,5.42
2022-08-17T00:48:32.304Z,5.86
2022-08-17T00:49:36.435Z,5.54
2022-08-17T00:50:47.291Z,4.99
2022-08-17T00:51:56.613Z,5.13
2022-08-17T00:53:01.078Z,5.26
2022-08-17T00:54:17.240Z,6.03
2022-08-17T00:55:26.363Z,5.64
2022-08-17T00:56:47.958Z,5.51
2022-08-17T00:57:56.178Z,5.56
2022-08-17T00:59:01.463Z,5.36
2022-08-17T01:00:12.244Z,5.74
2022-08-17T01:02:42.497Z,5.62
2022-08-17T01:03:46.080Z,5.57
2022-08-17T01:04:53.391Z,5.52
2022-08-17T01:06:02.810Z,5.97
2022-08-17T01:07:08.806Z,5.28
2022-08-17T01:08:15.960Z,5.83
2022-08-17T01:09:20.872Z,5.68
2022-08-17T01:11:42.083Z,5.72
2022-08-17T01:12:45.675Z,5.71
2022-08-17T01:13:51.870Z,5.60
2022-08-17T01:14:58.077Z,5.55
2022-08-17T01:16:09.432Z,5.77
2022-08-17T01:17:13.667Z,5.87
2022-08-17T01:18:17.425Z,5.38
2022-08-17T01:20:53.154Z,5.67
2022-08-17T01:22:07.868Z,5.33
2022-08-17T01:23:20.609Z,5.80
2022-08-17T01:24:19.030Z,5.89
2022-08-17T01:25:23.267Z,5.80
2022-08-17T01:26:29.636Z,6.14
2022-08-17T01:27:37.523Z,5.79
2022-08-17T01:28:55.141Z,5.44
2022-08-17T01:29:50.556Z,5.76
2022-08-17T01:30:58.316Z,5.49
2022-08-17T01:32:05.988Z,5.79
2022-08-17T01:33:10.512Z,5.93
2022-08-17T01:34:18.674Z,5.33
2022-08-17T01:36:41.678Z,5.36
2022-08-17T01:37:45.383Z,5.54
2022-08-17T01:38:50.235Z,5.56
2022-08-17T01:39:57.902Z,6.16
2022-08-17T01:41:06.544Z,5.76
2022-08-17T01:42:27.734Z,5.59
2022-08-17T01:43:38.719Z,6.02
2022-08-17T01:44:42.441Z,5.91
2022-08-17T01:45:48.258Z,5.34
2022-08-17T01:46:56.060Z,6.04
2022-08-17T01:48:00.998Z,5.41
2022-08-17T01:49:10.360Z,5.69
2022-08-17T01:50:19.284Z,5.74
2022-08-17T01:51:23.034Z,5.82
2022-08-17T01:52:28.189Z,6.15
2022-08-17T01:53:41.863Z,6.03
2022-08-17T01:54:47.971Z,5.97
2022-08-17T01:55:54.919Z,6.24
2022-08-17T01:57:01.994Z,5.98
2022-08-17T01:58:10.020Z,5.76
2022-08-17T01:59:13.928Z,6.18
2022-08-17T02:00:20.037Z,6.18
2022-08-17T02:01:26.961Z,5.71
2022-08-17T02:02:31.578Z,6.02
2022-08-17T02:03:40.468Z,6.42
2022-08-17T02:04:48.275Z,5.74
2022-08-17T02:05:52.949Z,6.06
2022-08-17T02:06:56.306Z,6.07
2022-08-17T02:08:02.052Z,5.87
2022-08-17T02:09:16.841Z,5.91
2022-08-17T02:10:19.870Z,6.17
2022-08-17T02:11:22.655Z,6.23
2022-08-17T02:12:38.830Z,6.12
2022-08-17T02:13:39.460Z,6.01
2022-08-17T02:14:43.345Z,6.34
2022-08-17T02:15:47.535Z,6.32
2022-08-17T02:16:51.120Z,6.12
2022-08-17T02:17:54.652Z,6.22
2022-08-17T02:18:58.661Z,6.02
2022-08-17T02:20:11.634Z,5.62
2022-08-17T02:21:17.224Z,6.62
2022-08-17T02:22:22.552Z,5.84
2022-08-17T02:23:30.200Z,6.12
2022-08-17T02:25:01.075Z,6.89
2022-08-17T02:25:50.192Z,6.02
2022-08-17T02:26:58.157Z,5.94
2022-08-17T02:28:03.007Z,6.13
2022-08-17T02:29:09.040Z,5.96
2022-08-17T02:31:00.310Z,6.27
2022-08-17T02:31:21.202Z,6.03
2022-08-17T02:32:28.667Z,6.42
2022-08-17T02:33:41.982Z,6.77
2022-08-17T02:34:41.040Z,5.61
2022-08-17T02:35:44.044Z,6.55
2022-08-17T02:36:49.255Z,6.34
2022-08-17T02:37:55.381Z,6.83
2022-08-17T02:38:58.124Z,6.70
2022-08-17T02:40:01.966Z,6.01
2022-08-17T02:41:08.498Z,6.42
2022-08-17T02:42:14.420Z,6.53
2022-08-17T02:43:19.234Z,6.52
2022-08-17T02:44:39.180Z,6.01
2022-08-17T02:45:31.816Z,6.04
2022-08-17T02:46:38.958Z,6.25
2022-08-17T02:47:46.398Z,6.27
2022-08-17T02:48:50.443Z,6.57
2022-08-17T02:49:56.122Z,5.88
2022-08-17T02:51:01.508Z,5.78
2022-08-17T02:52:14.884Z,5.74
2022-08-17T02:53:18.556Z,5.76
2022-08-17T02:54:40.659Z,6.48
2022-08-17T02:55:36.549Z,6.25
2022-08-17T02:56:40.797Z,6.28
2022-08-17T02:57:48.570Z,5.93
2022-08-17T02:58:59.108Z,5.95
2022-08-17T03:00:12.677Z,6.01
2022-08-17T03:01:16.774Z,6.12
2022-08-17T03:02:20.754Z,5.92
2022-08-17T03:03:24.409Z,6.28
2022-08-17T03:04:28.019Z,6.84
2022-08-17T03:05:35.565Z,6.21
2022-08-17T03:06:39.990Z,6.27
2022-08-17T03:07:43.617Z,5.75
2022-08-17T03:08:46.498Z,6.11
2022-08-17T03:09:53.486Z,6.38
2022-08-17T03:10:57.286Z,5.87
2022-08-17T03:37:18.582Z,6.33
2022-08-17T03:38:25.425Z,6.49
2022-08-17T03:39:29.602Z,6.84
2022-08-17T03:40:58.855Z,6.34
2022-08-17T03:41:41.186Z,6.58
2022-08-17T03:42:45.679Z,6.41
2022-08-17T03:43:50.576Z,6.32
2022-08-17T03:44:57.811Z,6.47
2022-08-17T03:46:34.619Z,6.38
2022-08-17T03:47:47.390Z,6.44
2022-08-17T03:50:21.800Z,5.88
2022-08-17T03:51:47.708Z,6.13
2022-08-17T03:53:10.068Z,6.23
2022-08-17T03:54:31.923Z,6.14
2022-08-17T03:55:55.800Z,6.03
2022-08-17T03:57:09.012Z,6.44
2022-08-17T03:58:13.668Z,6.52
2022-08-17T03:59:22.288Z,6.08
2022-08-17T04:00:28.666Z,6.62
2022-08-17T04:01:32.470Z,6.73
2022-08-17T04:02:38.290Z,6.61
2022-08-17T04:03:47.229Z,6.11
2022-08-17T04:04:51.615Z,5.78
2022-08-17T04:05:54.215Z,6.12
2022-08-17T04:06:58.992Z,6.59
2022-08-17T04:08:02.778Z,6.27
2022-08-17T04:09:11.071Z,6.89
2022-08-17T04:10:18.439Z,6.22
2022-08-17T04:11:23.016Z,6.59
2022-08-17T04:12:33.009Z,6.31
2022-08-17T04:13:36.740Z,6.44
2022-08-17T04:14:53.782Z,6.21
2022-08-17T04:15:44.837Z,5.88
2022-08-17T04:16:50.757Z,5.71
2022-08-17T04:17:56.585Z,6.21
2022-08-17T04:19:06.469Z,6.23
2022-08-17T04:20:13.624Z,6.41
2022-08-17T04:21:19.498Z,6.47
2022-08-17T04:22:32.508Z,6.57
2022-08-17T04:23:33.544Z,6.22
2022-08-17T04:24:41.034Z,6.52
2022-08-17T04:25:50.756Z,6.74
2022-08-17T04:26:57.526Z,6.72
2022-08-17T04:28:01.761Z,6.10
2022-08-17T04:29:08.319Z,6.39
2022-08-17T04:30:13.276Z,6.30
2022-08-17T04:31:17.148Z,6.52
2022-08-17T04:32:25.012Z,6.29
2022-08-17T04:33:31.904Z,6.66
2022-08-17T04:34:35.816Z,7.16
2022-08-17T04:35:47.153Z,6.91
2022-08-17T04:37:56.944Z,6.21
2022-08-17T04:39:01.775Z,5.99
2022-08-17T04:40:26.496Z,6.51
2022-08-17T04:41:51.905Z,6.07
2022-08-17T04:44:30.411Z,6.45
2022-08-17T04:45:26.944Z,5.92
2022-08-17T04:46:36.507Z,6.56
2022-08-17T04:47:40.737Z,6.73
2022-08-17T04:48:50.963Z,6.62
2022-08-17T04:49:54.472Z,6.16
2022-08-17T04:50:59.712Z,6.51
2022-08-17T04:52:10.507Z,6.67
2022-08-17T04:53:17.603Z,6.41
2022-08-17T04:54:26.050Z,6.34
2022-08-17T04:55:29.829Z,6.38
2022-08-17T04:56:39.238Z,6.52
2022-08-17T04:57:45.208Z,6.66
2022-08-17T04:58:51.357Z,6.58
2022-08-17T04:59:57.180Z,6.43
2022-08-17T05:01:00.780Z,6.61
2022-08-17T05:03:17.580Z,6.68
2022-08-17T05:04:33.966Z,6.36
2022-08-17T05:05:38.056Z,6.27
2022-08-17T05:06:47.836Z,6.19
2022-08-17T05:07:57.262Z,5.92
2022-08-17T05:09:04.144Z,6.18
2022-08-17T05:10:09.562Z,5.99
2022-08-17T05:11:17.902Z,6.77
2022-08-17T05:12:22.420Z,5.77
2022-08-17T05:13:33.101Z,6.12
2022-08-17T05:14:42.748Z,6.02
2022-08-17T05:15:50.055Z,5.57
2022-08-17T05:16:53.617Z,6.11
2022-08-17T05:17:58.500Z,5.96
2022-08-17T05:19:03.016Z,5.65
2022-08-17T05:20:09.334Z,5.98
2022-08-17T05:21:14.032Z,6.18
2022-08-17T05:22:22.247Z,6.27
2022-08-17T05:23:41.563Z,6.16
2022-08-17T05:24:42.660Z,5.51
2022-08-17T05:25:47.410Z,6.09
2022-08-17T05:26:52.291Z,5.96
2022-08-17T05:27:59.086Z,5.99
2022-08-17T05:29:04.020Z,5.84
2022-08-17T05:30:10.082Z,5.56
2022-08-17T05:31:14.660Z,6.58
2022-08-17T05:32:38.121Z,5.94
2022-08-17T05:33:37.118Z,6.03
2022-08-17T05:34:42.011Z,6.09
2022-08-17T05:35:51.653Z,6.02
2022-08-17T05:37:03.073Z,6.33
2022-08-17T05:39:15.697Z,6.04
2022-08-17T05:40:22.207Z,6.01
2022-08-17T05:41:25.865Z,5.89
2022-08-17T05:42:31.840Z,6.22
2022-08-17T05:43:39.590Z,6.14
2022-08-17T05:44:44.474Z,5.82
2022-08-17T05:45:56.444Z,6.29
2022-08-17T05:47:04.665Z,6.11
2022-08-17T05:48:09.813Z,6.07
2022-08-17T05:49:18.594Z,5.81
2022-08-17T05:50:27.166Z,5.96
2022-08-17T05:51:48.808Z,5.68
2022-08-17T05:53:27.925Z,6.32
2022-08-17T05:54:40.460Z,6.17
2022-08-17T05:55:53.993Z,5.79
2022-08-17T05:57:39.502Z,5.87
2022-08-17T05:59:08.104Z,5.76
2022-08-17T06:02:14.217Z,6.16
2022-08-17T06:03:34.437Z,6.52
2022-08-17T06:04:46.679Z,6.21
2022-08-17T06:05:56.587Z,6.03
2022-08-17T06:07:15.379Z,6.07
2022-08-17T06:08:28.363Z,5.94
2022-08-17T06:09:44.079Z,5.97
2022-08-17T06:11:04.295Z,5.84
2022-08-17T06:12:19.743Z,5.89
2022-08-17T06:13:58.004Z,5.58
2022-08-17T06:15:18.233Z,5.74
2022-08-17T06:16:34.035Z,6.17
2022-08-17T06:17:34.972Z,6.13
2022-08-17T06:18:48.331Z,5.78
2022-08-17T06:20:00.378Z,6.04
2022-08-17T06:21:07.920Z,5.67
2022-08-17T06:22:16.239Z,5.91
2022-08-17T06:25:10.388Z,6.25
2022-08-17T06:26:16.035Z,5.98
2022-08-17T06:27:31.365Z,5.70
2022-08-17T06:28:38.529Z,5.69
2022-08-17T06:30:04.227Z,6.14
2022-08-17T06:31:14.405Z,5.86
2022-08-17T06:32:18.120Z,6.32
2022-08-17T06:33:23.780Z,6.05
2022-08-17T06:34:30.492Z,6.78
2022-08-17T06:37:13.871Z,5.93
2022-08-17T06:38:37.523Z,6.15
2022-08-17T06:40:07.782Z,6.16
2022-08-17T06:41:20.905Z,6.13
2022-08-17T06:43:02.717Z,6.17
2022-08-17T06:44:02.447Z,6.25
2022-08-17T06:45:14.335Z,6.31
2022-08-17T06:46:36.413Z,6.35
2022-08-17T06:47:52.048Z,5.99
2022-08-17T06:49:28.438Z,6.08
2022-08-17T06:50:44.059Z,5.73
2022-08-17T06:51:53.230Z,6.46
2022-08-17T06:54:28.417Z,6.04
2022-08-17T06:55:49.785Z,5.94
2022-08-17T06:57:07.716Z,6.03
2022-08-17T06:58:16.219Z,5.86
2022-08-17T06:59:23.868Z,5.91
2022-08-17T07:00:34.443Z,6.28
2022-08-17T07:01:41.217Z,6.18
2022-08-17T07:03:07.354Z,6.12
2022-08-17T07:04:27.121Z,5.93
2022-08-17T07:05:46.336Z,6.07
2022-08-17T07:08:03.184Z,6.48
2022-08-17T07:09:10.928Z,5.77
2022-08-17T07:10:16.835Z,5.78
2022-08-17T07:11:37.367Z,5.61
2022-08-17T07:12:46.659Z,6.42
2022-08-17T07:14:24.799Z,5.89
2022-08-17T07:15:33.153Z,5.68
2022-08-17T07:16:47.194Z,5.49
2022-08-17T07:17:51.968Z,5.56
2022-08-17T07:18:58.014Z,5.83
2022-08-17T07:20:11.878Z,6.26
2022-08-17T07:21:26.219Z,5.55
2022-08-17T07:22:53.511Z,5.76
2022-08-17T07:23:57.895Z,5.64
2022-08-17T07:25:06.994Z,6.23
2022-08-17T07:26:10.611Z,5.49
2022-08-17T07:27:17.906Z,5.64
2022-08-17T07:28:22.874Z,6.11
2022-08-17T07:29:30.687Z,5.76
2022-08-17T07:30:47.508Z,5.54
2022-08-17T07:31:46.645Z,5.49
2022-08-17T07:33:02.065Z,5.54
2022-08-17T07:34:12.491Z,5.15
2022-08-17T07:35:40.642Z,5.42
2022-08-17T07:36:40.677Z,5.53
2022-08-17T07:37:55.654Z,5.32
2022-08-17T07:39:01.697Z,5.71
2022-08-17T07:41:21.322Z,5.16
2022-08-17T07:42:25.348Z,5.43
2022-08-17T07:43:44.865Z,5.60
2022-08-17T07:44:57.570Z,5.19
2022-08-17T07:46:33.837Z,5.42
2022-08-17T07:47:56.354Z,5.17
2022-08-17T07:49:03.305Z,5.24
2022-08-17T07:51:50.217Z,5.33
2022-08-17T07:52:59.845Z,5.41
2022-08-17T07:54:14.552Z,5.18
2022-08-17T07:55:33.383Z,5.31
2022-08-17T07:56:58.676Z,5.64
2022-08-17T07:58:02.487Z,5.51
2022-08-17T07:59:14.607Z,5.34
2022-08-17T08:00:19.233Z,5.48
2022-08-17T08:01:25.021Z,5.28
2022-08-17T08:02:41.660Z,5.98
2022-08-17T08:03:51.035Z,5.31
2022-08-17T08:06:21.473Z,5.59
2022-08-17T08:07:32.090Z,5.33
2022-08-17T08:09:44.715Z,5.51
2022-08-17T08:10:52.012Z,5.76
2022-08-17T08:11:58.688Z,4.73
2022-08-17T08:13:20.259Z,5.07
2022-08-17T08:14:30.138Z,5.24
2022-08-17T08:15:54.191Z,5.38
2022-08-17T08:17:01.664Z,5.53
2022-08-17T08:18:08.057Z,5.36
2022-08-17T08:19:16.315Z,5.13
2022-08-17T08:21:41.212Z,5.25
2022-08-17T08:22:53.344Z,5.28
2022-08-17T08:24:16.163Z,4.89
2022-08-17T08:25:23.476Z,5.61
2022-08-17T08:26:37.086Z,5.39
2022-08-17T08:28:05.601Z,5.03
2022-08-17T08:29:19.063Z,5.57
2022-08-17T08:30:28.703Z,5.37
2022-08-17T08:31:42.470Z,5.56
2022-08-17T08:33:01.683Z,5.34
2022-08-17T08:34:58.622Z,4.94
2022-08-17T08:35:35.029Z,5.34
2022-08-17T08:36:57.064Z,5.48
2022-08-17T08:38:19.522Z,5.36
2022-08-17T08:39:48.562Z,5.01
2022-08-17T08:41:22.620Z,5.61
2022-08-17T08:42:47.135Z,5.29
2022-08-17T08:44:05.003Z,4.87
2022-08-17T08:45:19.425Z,5.65
2022-08-17T08:48:05.394Z,5.48
2022-08-17T08:50:06.040Z,5.56
2022-08-17T08:51:03.902Z,5.67
2022-08-17T08:52:12.147Z,5.08
2022-08-17T08:53:29.606Z,5.25
2022-08-17T08:54:50.051Z,5.37
2022-08-17T08:57:34.868Z,5.00
2022-08-17T08:58:47.800Z,5.35
2022-08-17T09:00:05.366Z,5.21
2022-08-17T09:01:17.553Z,5.56
2022-08-17T09:02:29.651Z,5.04
2022-08-17T09:05:13.966Z,4.99
2022-08-17T09:06:32.251Z,5.24
2022-08-17T09:07:38.666Z,4.81
2022-08-17T09:10:15.387Z,5.50
2022-08-17T09:12:02.893Z,5.47
2022-08-17T09:13:10.292Z,5.11
2022-08-17T09:14:28.606Z,5.01
2022-08-17T09:15:35.584Z,5.65
2022-08-17T09:17:12.100Z,5.68
2022-08-17T09:19:00.417Z,5.38
2022-08-17T09:19:37.683Z,5.56
2022-08-17T09:22:03.554Z,5.12
2022-08-17T09:23:17.098Z,5.12
2022-08-17T09:24:25.091Z,5.71
2022-08-17T09:25:32.776Z,5.44
2022-08-17T09:26:40.448Z,5.58
2022-08-17T09:28:00.622Z,5.82
2022-08-17T09:30:14.408Z,6.48
2022-08-17T09:31:26.029Z,6.14
2022-08-17T09:32:45.991Z,5.92
2022-08-17T09:33:50.073Z,6.11
2022-08-17T09:34:57.478Z,6.54
2022-08-17T09:36:04.869Z,6.25
2022-08-17T09:37:33.668Z,5.79
2022-08-17T09:38:52.845Z,6.01
2022-08-17T09:40:10.204Z,5.86
2022-08-17T09:41:25.549Z,5.84
2022-08-17T09:42:40.284Z,5.90
2022-08-17T09:44:01.319Z,5.83
2022-08-17T09:45:26.783Z,6.48
2022-08-17T09:46:42.440Z,6.72
2022-08-17T09:47:59.585Z,7.13
2022-08-17T09:49:14.998Z,6.93
2022-08-17T09:51:44.438Z,6.90
2022-08-17T09:52:54.997Z,7.30
2022-08-17T09:54:34.969Z,6.84
2022-08-17T09:55:09.053Z,6.81
2022-08-17T09:56:33.597Z,6.49
2022-08-17T09:57:48.130Z,6.39
2022-08-17T09:59:20.465Z,5.91
2022-08-17T10:00:31.767Z,6.26
2022-08-17T10:01:43.306Z,6.11
2022-08-17T10:02:56.260Z,6.21
2022-08-17T10:04:06.412Z,5.77
2022-08-17T10:05:17.363Z,6.33
2022-08-17T10:06:32.218Z,5.92
2022-08-17T10:07:47.976Z,6.29
2022-08-17T10:09:07.675Z,5.87
2022-08-17T10:10:15.568Z,6.63
2022-08-17T10:11:33.738Z,6.63
2022-08-17T10:12:47.027Z,6.24
2022-08-17T10:15:14.188Z,6.75
2022-08-17T10:16:27.131Z,6.86
2022-08-17T10:17:47.125Z,7.41
2022-08-17T10:19:09.929Z,6.82
2022-08-17T10:20:18.631Z,6.68
2022-08-17T10:21:44.407Z,6.92
2022-08-17T10:23:10.226Z,6.89
2022-08-17T10:24:39.260Z,7.03
2022-08-17T10:26:09.706Z,6.90
2022-08-17T10:27:20.523Z,7.03
2022-08-17T10:28:30.100Z,7.04
2022-08-17T10:31:16.729Z,6.91
2022-08-17T10:32:12.427Z,6.45
2022-08-17T10:33:24.357Z,8.07
2022-08-17T10:35:02.635Z,7.22
2022-08-17T10:36:23.334Z,7.17
2022-08-17T10:40:04.309Z,6.68
2022-08-17T10:41:23.946Z,6.43
2022-08-17T10:42:32.929Z,6.42
2022-08-17T10:45:25.757Z,7.03
2022-08-17T10:47:03.718Z,7.03
2022-08-17T10:48:13.843Z,7.03
2022-08-17T10:50:54.203Z,7.42
2022-08-17T10:52:01.054Z,7.35
2022-08-17T10:53:08.166Z,6.77
2022-08-17T10:54:33.281Z,7.35
2022-08-17T10:55:36.945Z,7.24
2022-08-17T10:56:44.045Z,7.04
2022-08-17T10:57:53.390Z,7.59
2022-08-17T10:59:00.410Z,7.16
2022-08-17T11:00:27.738Z,7.61
2022-08-17T11:01:44.607Z,6.94
2022-08-17T11:02:52.319Z,7.29
2022-08-17T11:03:58.921Z,7.23
2022-08-17T11:05:18.268Z,7.02
2022-08-17T11:06:27.178Z,6.83
2022-08-17T11:07:51.271Z,6.95
2022-08-17T11:09:14.192Z,7.32
2022-08-17T11:10:30.930Z,7.48
2022-08-17T11:11:58.402Z,7.37
2022-08-17T11:13:09.828Z,7.56
2022-08-17T11:14:49.097Z,6.96
2022-08-17T11:16:02.358Z,6.63
2022-08-17T11:17:20.196Z,6.86
2022-08-17T11:18:53.167Z,6.34
2022-08-17T11:45:33.043Z,7.16
2022-08-17T11:47:21.760Z,7.28
2022-08-17T11:48:53.566Z,6.32
2022-08-17T11:50:49.472Z,7.47
2022-08-17T11:52:24.861Z,7.19
2022-08-17T11:53:45.669Z,7.33
2022-08-17T11:54:49.935Z,6.88
2022-08-17T11:56:01.010Z,7.24
2022-08-17T11:58:30.729Z,6.52
2022-08-17T11:59:38.832Z,6.62
2022-08-17T12:00:54.983Z,7.06
2022-08-17T12:02:07.056Z,7.08
2022-08-17T12:03:28.685Z,6.44
2022-08-17T12:04:36.433Z,6.70
2022-08-17T12:05:40.802Z,6.48
2022-08-17T12:06:48.696Z,6.55
2022-08-17T12:08:14.225Z,6.42
2022-08-17T12:09:26.528Z,6.63
2022-08-17T12:12:13.629Z,6.28
2022-08-17T12:13:15.437Z,6.12
2022-08-17T12:14:51.312Z,6.03
2022-08-17T12:15:41.021Z,6.36
2022-08-17T12:16:45.414Z,6.18
2022-08-17T12:17:56.748Z,6.15
2022-08-17T12:19:06.054Z,6.11
2022-08-17T12:20:19.100Z,6.07
2022-08-17T12:21:33.387Z,6.37
2022-08-17T12:22:43.848Z,6.54
2022-08-17T12:25:24.660Z,6.52
2022-08-17T12:26:32.657Z,5.93
2022-08-17T12:27:50.754Z,6.31
2022-08-17T12:28:50.599Z,6.31
2022-08-17T12:29:54.938Z,6.01
2022-08-17T12:31:15.451Z,6.01
2022-08-17T12:32:22.782Z,5.94
2022-08-17T12:33:28.766Z,6.22
2022-08-17T12:34:38.248Z,6.18
2022-08-17T12:35:42.699Z,6.05
2022-08-17T12:36:51.845Z,6.27
2022-08-17T12:37:58.420Z,6.20
2022-08-17T12:39:14.272Z,6.28
2022-08-17T12:40:23.899Z,6.06
2022-08-17T12:41:34.592Z,5.84
2022-08-17T12:42:42.629Z,6.33
2022-08-17T12:43:53.279Z,5.82
2022-08-17T12:44:57.906Z,6.07
2022-08-17T12:46:14.813Z,6.06
2022-08-17T12:47:21.561Z,5.95
2022-08-17T12:48:28.352Z,5.61
2022-08-17T12:49:35.480Z,5.30
2022-08-17T12:50:47.590Z,5.58
2022-08-17T12:51:54.311Z,5.88
2022-08-17T12:53:02.059Z,5.42
2022-08-17T12:54:04.002Z,5.31
2022-08-17T12:55:24.621Z,5.70
2022-08-17T12:56:31.805Z,5.56
2022-08-17T12:57:47.417Z,5.38
2022-08-17T12:58:57.057Z,5.43
2022-08-17T13:00:13.718Z,5.71
2022-08-17T13:01:18.633Z,5.89
2022-08-17T13:02:28.196Z,6.21
2022-08-17T13:03:40.264Z,5.69
2022-08-17T13:04:44.807Z,5.76
2022-08-17T13:06:02.847Z,5.72
2022-08-17T13:07:06.333Z,5.36
2022-08-17T13:08:16.891Z,5.64
2022-08-17T13:10:33.526Z,5.73
2022-08-17T13:11:39.472Z,6.17
2022-08-17T13:12:43.232Z,5.92
2022-08-17T13:13:55.881Z,5.49
2022-08-17T13:15:01.926Z,5.79
2022-08-17T13:16:11.887Z,5.44
2022-08-17T13:17:21.274Z,5.67
2022-08-17T13:18:49.735Z,5.51
2022-08-17T13:19:54.205Z,5.03
2022-08-17T13:21:00.805Z,5.62
2022-08-17T13:22:10.392Z,5.56
2022-08-17T13:23:18.905Z,5.23
2022-08-17T13:24:53.600Z,5.38
2022-08-17T13:26:10.099Z,5.19
2022-08-17T13:27:19.022Z,5.62
2022-08-17T13:28:35.817Z,5.22
2022-08-17T13:29:39.181Z,5.46
2022-08-17T13:30:42.799Z,5.44
2022-08-17T13:31:52.795Z,5.32
2022-08-17T13:32:57.582Z,5.69
2022-08-17T13:34:27.691Z,5.53
2022-08-17T13:35:44.310Z,5.79
2022-08-17T13:36:57.311Z,5.28
2022-08-17T13:38:12.212Z,5.11
2022-08-17T13:39:19.585Z,5.11
2022-08-17T13:40:29.137Z,5.44
2022-08-17T13:41:37.169Z,5.19
2022-08-17T13:42:53.164Z,5.23
2022-08-17T13:43:54.491Z,5.25
2022-08-17T13:45:02.188Z,5.58
2022-08-17T13:46:18.314Z,5.27
2022-08-17T13:47:29.146Z,5.21
2022-08-17T13:48:33.517Z,5.17
2022-08-17T13:49:49.090Z,5.37
2022-08-17T13:50:49.672Z,5.30
2022-08-17T13:51:53.953Z,5.26
2022-08-17T13:53:00.909Z,5.01
2022-08-17T13:54:11.133Z,5.35
2022-08-17T13:55:22.126Z,5.89
2022-08-17T13:56:38.421Z,5.39
2022-08-17T13:57:39.870Z,5.57
2022-08-17T13:58:59.135Z,4.78
2022-08-17T14:00:13.053Z,4.96
2022-08-17T14:01:52.775Z,5.71
2022-08-17T14:02:55.277Z,5.37
2022-08-17T14:04:02.334Z,5.54
2022-08-17T14:05:08.005Z,5.56
2022-08-17T14:06:51.910Z,5.56
2022-08-17T14:07:24.594Z,5.61
2022-08-17T14:08:29.072Z,5.55
2022-08-17T14:09:37.354Z,5.70
2022-08-17T14:10:43.966Z,5.45
2022-08-17T14:11:48.820Z,5.48
2022-08-17T14:12:54.307Z,5.49
2022-08-17T14:13:59.211Z,5.71
2022-08-17T14:15:03.863Z,5.55
2022-08-17T14:16:09.420Z,5.42
2022-08-17T14:17:14.879Z,5.42
2022-08-17T14:18:42.024Z,5.31
2022-08-17T14:19:30.872Z,5.43
2022-08-17T14:20:36.248Z,5.26
2022-08-17T14:21:44.560Z,5.23
2022-08-17T14:22:51.273Z,5.57
2022-08-17T14:23:55.184Z,5.23
2022-08-17T14:25:02.215Z,5.37
2022-08-17T14:26:07.689Z,5.13
2022-08-17T14:27:12.446Z,5.20
2022-08-17T14:28:15.932Z,5.20
2022-08-17T14:29:20.639Z,5.25
2022-08-17T14:30:29.825Z,5.09
2022-08-17T14:31:37.393Z,5.43
2022-08-17T14:32:40.361Z,5.61
2022-08-17T14:33:45.295Z,5.65
2022-08-17T14:34:50.091Z,5.52
2022-08-17T14:35:55.316Z,4.94
2022-08-17T14:37:00.531Z,5.49
2022-08-17T14:38:04.281Z,5.58
2022-08-17T14:39:09.544Z,5.19
2022-08-17T14:40:17.124Z,5.34
2022-08-17T14:41:24.960Z,5.62
2022-08-17T14:42:39.118Z,5.39
2022-08-17T14:43:43.786Z,5.78
2022-08-17T14:44:46.499Z,5.65
2022-08-17T14:45:51.401Z,5.88
2022-08-17T14:47:00.321Z,5.67
2022-08-17T14:48:08.898Z,5.87
2022-08-17T14:49:16.114Z,5.26
2022-08-17T14:50:22.083Z,5.42
2022-08-17T14:51:32.397Z,5.20
2022-08-17T14:52:35.577Z,5.72
2022-08-17T14:53:39.211Z,5.54
2022-08-17T14:54:47.228Z,5.58
2022-08-17T14:55:53.472Z,5.81
2022-08-17T14:56:59.195Z,5.57
2022-08-17T14:58:03.934Z,6.04
2022-08-17T14:59:11.007Z,5.79
2022-08-17T15:00:17.926Z,5.84
2022-08-17T15:01:27.034Z,5.84
2022-08-17T15:02:30.866Z,5.76
2022-08-17T15:03:41.641Z,5.75
2022-08-17T15:04:49.405Z,5.75
2022-08-17T15:05:53.406Z,6.09
2022-08-17T15:06:58.577Z,5.72
2022-08-17T15:08:05.193Z,5.68
2022-08-17T15:09:08.178Z,5.86
2022-08-17T15:10:19.301Z,5.83
2022-08-17T15:11:25.701Z,5.95
2022-08-17T15:12:34.328Z,5.90
2022-08-17T15:13:52.954Z,5.75
2022-08-17T15:14:49.275Z,5.42
2022-08-17T15:15:54.716Z,5.47
2022-08-17T15:16:58.891Z,5.96
2022-08-17T15:18:02.922Z,5.89
2022-08-17T15:19:10.986Z,5.52
2022-08-17T15:20:21.097Z,5.89
2022-08-17T15:21:24.510Z,5.19
2022-08-17T15:22:28.045Z,5.53
2022-08-17T15:23:33.605Z,5.53
2022-08-17T15:25:55.066Z,5.21
2022-08-17T15:27:01.672Z,5.74
2022-08-17T15:28:05.590Z,5.62
2022-08-17T15:29:13.380Z,5.84
2022-08-17T15:30:21.765Z,5.68
2022-08-17T15:31:31.674Z,6.29
2022-08-17T15:32:39.597Z,6.27
2022-08-17T15:33:43.101Z,5.89
2022-08-17T15:34:47.482Z,6.01
2022-08-17T15:35:53.799Z,6.69
2022-08-17T15:37:00.638Z,5.63
2022-08-17T15:38:12.059Z,6.73
2022-08-17T15:39:19.550Z,6.29
2022-08-17T15:41:29.213Z,5.96
2022-08-17T15:42:36.337Z,6.13
2022-08-17T15:43:40.205Z,5.62
2022-08-17T15:44:45.747Z,6.14
2022-08-17T15:45:58.619Z,6.12
2022-08-17T15:46:54.380Z,5.74
2022-08-17T15:48:01.612Z,6.12
2022-08-17T15:49:05.589Z,5.56
2022-08-17T15:50:14.656Z,5.63
2022-08-17T15:51:31.510Z,5.69
2022-08-17T15:52:41.929Z,5.51
2022-08-17T15:53:49.181Z,5.21
2022-08-17T15:55:20.811Z,5.70
2022-08-17T15:56:24.225Z,6.23
2022-08-17T15:57:29.162Z,5.22
2022-08-17T15:58:34.598Z,5.59
2022-08-17T15:59:39.668Z,5.40
2022-08-17T16:00:53.556Z,6.20
2022-08-17T16:03:16.042Z,6.58
2022-08-17T16:03:44.680Z,6.23
2022-08-17T16:04:30.528Z,6.37
2022-08-17T16:05:18.816Z,6.94
2022-08-17T16:06:25.241Z,6.20
2022-08-17T16:07:28.959Z,6.17
2022-08-17T16:08:31.816Z,6.20
2022-08-17T16:09:35.295Z,6.74
2022-08-17T16:10:43.980Z,6.71
2022-08-17T16:11:53.763Z,6.19
2022-08-17T16:12:55.806Z,6.18
2022-08-17T16:14:00.536Z,6.25
2022-08-17T16:15:06.059Z,6.48
2022-08-17T16:16:12.670Z,6.76
2022-08-17T16:17:39.602Z,6.37
2022-08-17T16:18:27.770Z,6.48
2022-08-17T16:19:33.277Z,6.53
2022-08-17T16:20:39.356Z,6.52
2022-08-17T16:21:42.754Z,6.36
2022-08-17T16:22:47.724Z,6.25
2022-08-17T16:23:59.443Z,6.36
2022-08-17T16:25:12.324Z,6.20
2022-08-17T16:26:16.005Z,7.07
2022-08-17T16:27:20.816Z,6.31
2022-08-17T16:28:35.592Z,6.12
2022-08-17T16:29:30.274Z,6.14
2022-08-17T16:30:32.909Z,6.36
2022-08-17T16:31:38.312Z,6.47
2022-08-17T16:32:42.417Z,6.19
2022-08-17T16:34:17.007Z,6.02
2022-08-17T16:34:52.248Z,5.97
2022-08-17T16:35:56.841Z,6.18
2022-08-17T16:37:02.179Z,5.89
2022-08-17T16:39:21.895Z,6.48
2022-08-17T16:40:28.094Z,6.36
2022-08-17T16:41:45.927Z,6.05
2022-08-17T16:42:50.754Z,5.58
2022-08-17T16:43:55.905Z,6.21
2022-08-17T16:45:13.755Z,5.99
2022-08-17T16:46:20.100Z,6.12
2022-08-17T16:47:24.422Z,5.83
2022-08-17T16:48:29.318Z,5.94
2022-08-17T16:49:37.451Z,5.91
2022-08-17T16:50:42.489Z,5.75
2022-08-17T16:51:48.955Z,6.38
2022-08-17T16:52:55.079Z,5.75
2022-08-17T16:53:59.645Z,5.56
2022-08-17T16:55:07.576Z,5.94
2022-08-17T16:56:11.886Z,5.42
2022-08-17T16:57:17.832Z,5.78
2022-08-17T16:58:23.081Z,5.91
2022-08-17T16:59:30.769Z,5.69
2022-08-17T17:00:35.249Z,5.39
2022-08-17T17:01:41.427Z,6.05
2022-08-17T17:02:48.117Z,5.44
2022-08-17T17:03:58.336Z,5.36
2022-08-17T17:05:08.035Z,5.37
2022-08-17T17:06:45.870Z,5.83
2022-08-17T17:08:02.798Z,6.02
2022-08-17T17:09:09.600Z,5.67
2022-08-17T17:10:18.096Z,6.03
2022-08-17T17:11:40.894Z,5.68
2022-08-17T17:13:02.303Z,5.89
2022-08-17T17:14:00.598Z,5.91
2022-08-17T17:15:06.020Z,6.02
2022-08-17T17:16:32.770Z,5.93
2022-08-17T17:17:39.537Z,5.86
2022-08-17T17:19:00.339Z,6.33
2022-08-17T17:20:10.802Z,6.02
2022-08-17T17:21:18.458Z,6.11